Time;durP1;ratioP1;P1;durP2;ratioP2;P2;SDS_P1;SDS_P2;PMS_P1;PMS_P2;Temp;Humidity;BMP_temperature;BMP_pressure;BME280_temperature;BME280_humidity;BME280_pressure;Samples;Min_cycle;Max_cycle;Signal;HPM_P1;HPM_P2
2022/05/10 00:00:55;;;;;;;9.50;8.00;;;;;;;10.92;91.60;101783.01;109153;1233;72771;-77
2022/05/10 00:03:38;;;;;;;10.20;8.50;;;;;;;10.95;91.39;101784.60;109145;1234;72369;-78
2022/05/10 00:06:07;;;;;;;11.10;8.30;;;;;;;10.97;91.36;101784.34;109183;1234;74989;-76
2022/05/10 00:08:38;;;;;;;8.80;7.50;;;;;;;10.97;91.46;101780.86;109151;1233;63309;-78
2022/05/10 00:11:06;;;;;;;8.90;7.40;;;;;;;11.03;91.91;101779.09;108794;1234;59254;-79
2022/05/10 00:13:33;;;;;;;9.90;7.80;;;;;;;11.04;92.23;101780.57;108955;1233;71921;-76
2022/05/10 00:16:00;;;;;;;9.00;7.40;;;;;;;11.08;91.20;101776.72;108953;1233;72194;-75
2022/05/10 00:18:29;;;;;;;13.00;8.40;;;;;;;11.09;91.54;101776.29;109089;1233;68333;-78
2022/05/10 00:20:57;;;;;;;11.20;7.90;;;;;;;11.07;92.58;101773.46;109130;1234;73929;-77
2022/05/10 00:23:25;;;;;;;11.80;8.20;;;;;;;11.11;92.28;101767.11;109291;1233;60747;-77
2022/05/10 00:25:52;;;;;;;9.70;8.50;;;;;;;11.16;92.34;101768.06;109045;1234;58787;-77
2022/05/10 00:28:20;;;;;;;9.10;8.10;;;;;;;11.20;92.54;101768.20;109255;1234;74551;-79
2022/05/10 00:30:47;;;;;;;11.80;9.10;;;;;;;11.20;92.28;101773.41;109257;1234;70048;-77
2022/05/10 00:33:22;;;;;;;11.40;8.20;;;;;;;11.22;92.40;101775.55;109120;1234;67945;-79
2022/05/10 00:35:49;;;;;;;10.40;8.20;;;;;;;11.23;92.22;101770.76;109204;1234;72355;-77
2022/05/10 00:38:17;;;;;;;10.70;7.60;;;;;;;11.26;91.86;101771.80;109119;1234;62082;-74
2022/05/10 00:40:44;;;;;;;11.70;7.90;;;;;;;11.31;90.90;101773.62;109094;1234;59684;-76
2022/05/10 00:43:29;;;;;;;12.70;9.70;;;;;;;11.34;90.15;101770.29;109012;1234;71616;-78
2022/05/10 00:46:08;;;;;;;12.50;9.70;;;;;;;11.28;90.37;101770.84;109011;1233;71458;-77
2022/05/10 00:49:02;;;;;;;15.30;10.30;;;;;;;11.19;90.63;101770.63;109040;1234;68164;-76
2022/05/10 00:51:57;;;;;;;12.60;9.80;;;;;;;11.19;90.58;101767.55;108738;1235;71995;-74
2022/05/10 00:54:43;;;;;;;12.20;9.80;;;;;;;11.14;92.49;101768.69;109112;1234;62940;-75
2022/05/10 00:57:33;;;;;;;17.10;9.30;;;;;;;11.17;92.88;101765.41;109281;1232;60172;-76
2022/05/10 01:00:23;;;;;;;12.10;10.30;;;;;;;11.19;92.22;101767.36;109216;1233;69837;-75
2022/05/10 01:03:18;;;;;;;12.00;10.00;;;;;;;11.21;91.13;101767.92;109314;1234;72204;-76
2022/05/10 01:05:57;;;;;;;13.30;9.60;;;;;;;11.21;91.24;101768.96;109519;1234;69440;-76
2022/05/10 01:08:31;;;;;;;14.40;10.70;;;;;;;11.24;92.31;101766.73;109118;1235;74528;-76
2022/05/10 01:11:19;;;;;;;12.00;10.10;;;;;;;11.25;92.44;101762.28;109271;1233;63306;-78
2022/05/10 01:13:59;;;;;;;11.30;9.90;;;;;;;11.28;92.62;101757.42;109151;1235;60664;-75
2022/05/10 01:16:26;;;;;;;13.50;10.30;;;;;;;11.27;92.61;101752.78;109282;1234;73273;-76
2022/05/10 01:18:55;;;;;;;14.70;10.30;;;;;;;11.24;92.94;101749.13;108995;1234;73686;-74
2022/05/10 01:21:34;;;;;;;12.00;10.00;;;;;;;11.25;92.93;101748.19;109190;1233;69274;-77
2022/05/10 01:24:49;;;;;;;12.90;10.50;;;;;;;11.21;93.14;101745.61;109338;1234;73984;-78
2022/05/10 01:27:56;;;;;;;13.90;10.70;;;;;;;11.20;93.22;101745.36;109045;1233;62557;-76
2022/05/10 01:30:30;;;;;;;14.30;10.80;;;;;;;11.21;93.13;101742.63;109358;1234;58738;-79
2022/05/10 01:35:55;;;;;;;11.00;9.10;;;;;;;11.24;92.24;101743.52;109316;1234;69583;-77
2022/05/10 01:38:54;;;;;;;11.80;9.20;;;;;;;11.21;91.67;101745.97;109314;1234;68532;-77
2022/05/10 01:41:50;;;;;;;10.10;8.80;;;;;;;11.15;91.41;101744.39;109316;1234;75401;-77
2022/05/10 01:44:44;;;;;;;10.40;8.40;;;;;;;11.09;91.30;101745.27;109273;1232;61803;-77
2022/05/10 01:47:20;;;;;;;10.90;8.90;;;;;;;11.02;90.87;101742.55;109239;1234;59382;-77
2022/05/10 01:50:09;;;;;;;10.80;8.50;;;;;;;10.95;90.34;101744.85;109460;1233;73741;-77
2022/05/10 01:52:58;;;;;;;15.20;9.40;;;;;;;10.85;89.95;101741.59;109082;1233;72756;-80
2022/05/10 01:55:35;;;;;;;13.90;11.20;;;;;;;10.77;90.21;101741.36;109449;1233;70254;-77
2022/05/10 01:58:10;;;;;;;14.10;10.00;;;;;;;10.72;90.40;101742.01;109437;1233;72697;-77
2022/05/10 02:00:39;;;;;;;13.00;9.70;;;;;;;10.70;92.02;101741.91;109672;1233;61241;-79
2022/05/10 02:03:28;;;;;;;11.50;9.90;;;;;;;10.67;93.14;101741.23;109761;1232;61339;-79
2022/05/10 02:06:23;;;;;;;11.30;10.00;;;;;;;10.65;93.44;101746.41;109410;1234;71377;-76
2022/05/10 02:09:23;;;;;;;12.70;9.90;;;;;;;10.67;93.58;101749.25;109286;1233;72267;-78
2022/05/10 02:12:15;;;;;;;12.80;10.80;;;;;;;10.71;93.40;101745.52;109094;1233;69439;-78
2022/05/10 02:14:54;;;;;;;12.90;11.20;;;;;;;10.76;93.47;101749.98;109178;1235;72490;-77
2022/05/10 02:17:35;;;;;;;12.70;9.80;;;;;;;10.78;92.87;101752.30;109269;1234;60532;-77
2022/05/10 02:20:30;;;;;;;12.50;10.50;;;;;;;10.76;92.45;101752.92;109455;1234;60600;-78
2022/05/10 02:23:06;;;;;;;;;;;;;;;10.74;92.47;101751.63;109347;1235;72588;-76
2022/05/10 02:25:49;;;;;;;13.30;9.70;;;;;;;10.74;92.88;101749.38;109585;1234;70231;-78
2022/05/10 02:28:35;;;;;;;10.80;9.70;;;;;;;10.69;92.76;101746.20;110091;1234;68141;-73
2022/05/10 02:31:11;;;;;;;11.70;9.10;;;;;;;10.70;92.43;101745.23;109325;1234;74301;-74
2022/05/10 02:33:41;;;;;;;14.10;11.00;;;;;;;10.72;92.54;101747.73;109603;1233;60665;-78
2022/05/10 02:36:09;;;;;;;12.50;9.80;;;;;;;10.75;92.46;101749.64;109782;1234;61317;-76
2022/05/10 02:38:39;;;;;;;13.20;10.10;;;;;;;10.80;92.40;101753.05;109265;1233;554594;-77
2022/05/10 02:41:22;;;;;;;14.80;11.00;;;;;;;10.84;92.45;101754.88;109947;1233;69529;-80
2022/05/10 02:43:59;;;;;;;14.10;9.60;;;;;;;10.83;91.21;101758.40;110018;1233;69817;-77
2022/05/10 02:46:28;;;;;;;13.30;10.10;;;;;;;10.80;90.76;101761.02;109374;1233;74705;-77
2022/05/10 02:48:55;;;;;;;11.20;9.50;;;;;;;10.77;91.15;101759.83;109918;1233;60410;-79
2022/05/10 02:51:23;;;;;;;11.20;9.80;;;;;;;10.78;91.40;101761.70;109388;1234;60337;-78
2022/05/10 02:53:50;;;;;;;13.00;11.50;;;;;;;10.80;91.92;101760.54;109912;1233;73433;-77
2022/05/10 02:56:25;;;;;;;13.10;10.40;;;;;;;10.81;92.31;101763.40;109589;1233;70177;-78
2022/05/10 02:59:20;;;;;;;15.20;11.40;;;;;;;10.84;92.34;101764.63;109409;1234;67940;-78
2022/05/10 03:01:58;;;;;;;12.80;10.70;;;;;;;10.90;92.07;101768.14;109622;1233;72307;-76
2022/05/10 03:04:35;;;;;;;16.60;10.20;;;;;;;10.96;92.03;101773.58;109549;1233;62119;-77
2022/05/10 03:07:05;;;;;;;14.50;10.00;;;;;;;11.00;91.40;101777.67;109637;1234;58237;-78
2022/05/10 03:09:33;;;;;;;13.10;9.80;;;;;;;11.04;91.48;101775.56;109362;1234;73206;-78
2022/05/10 03:12:05;;;;;;;14.90;9.50;;;;;;;11.07;90.96;101776.26;109601;1233;69960;-77
2022/05/10 03:14:33;;;;;;;12.70;10.40;;;;;;;11.10;90.88;101778.67;109832;1234;70812;-76
2022/05/10 03:17:03;;;;;;;13.50;11.20;;;;;;;11.14;90.71;101776.67;109805;1233;72448;-77
2022/05/10 03:19:32;;;;;;;13.70;10.60;;;;;;;11.15;90.93;101782.89;109818;1234;61048;-77
2022/05/10 03:22:01;;;;;;;12.50;9.90;;;;;;;11.16;90.69;101779.20;109412;1235;60412;-76
2022/05/10 03:24:30;;;;;;;12.40;10.20;;;;;;;11.21;90.49;101779.27;109196;1234;74322;-76
2022/05/10 03:26:59;;;;;;;13.70;11.00;;;;;;;11.26;90.17;101781.92;109231;1235;71390;-77
2022/05/10 03:29:27;;;;;;;12.30;11.00;;;;;;;11.29;90.45;101785.06;109355;1233;70169;-78
2022/05/10 03:31:56;;;;;;;15.10;11.80;;;;;;;11.33;90.27;101788.98;109923;1232;71526;-77
2022/05/10 03:37:10;;;;;;;15.30;12.30;;;;;;;11.35;89.41;101791.14;109982;1233;60325;-76
2022/05/10 03:39:38;;;;;;;31.50;24.00;;;;;;;11.35;89.56;101795.50;109942;1233;71401;-77
2022/05/10 03:42:06;;;;;;;14.00;11.00;;;;;;;11.39;90.15;101798.26;109831;1233;71888;-78
2022/05/10 03:44:35;;;;;;;13.80;10.70;;;;;;;11.44;90.17;101799.35;109869;1233;69575;-76
2022/05/10 03:47:08;;;;;;;14.00;11.50;;;;;;;11.50;89.99;101797.61;109927;1233;73138;-81
2022/05/10 03:49:37;;;;;;;14.00;11.60;;;;;;;11.54;89.85;101793.56;110279;1233;60929;-80
2022/05/10 03:52:06;;;;;;;14.70;11.50;;;;;;;11.61;89.29;101791.20;110414;1233;60475;-79
2022/05/10 03:54:33;;;;;;;14.80;10.50;;;;;;;11.67;88.72;101792.77;110219;1233;73452;-80
2022/05/10 03:57:01;;;;;;;14.10;10.60;;;;;;;11.71;88.69;101791.33;109852;1233;72060;-79
2022/05/10 03:59:28;;;;;;;15.20;11.10;;;;;;;11.72;88.78;101790.90;110023;1234;68285;-77
2022/05/10 04:01:58;;;;;;;12.10;10.00;;;;;;;11.75;89.92;101788.80;110021;1233;73279;-76
2022/05/10 04:08:24;;;;;;;12.10;9.80;;;;;;;11.99;88.40;101783.04;109156;1238;60839;-77
2022/05/10 04:10:51;;;;;;;11.80;10.20;;;;;;;12.06;88.07;101788.16;109105;1237;73224;-75
2022/05/10 04:13:29;;;;;;;14.50;9.70;;;;;;;12.10;87.80;101786.89;109329;1236;70478;-78
2022/05/10 04:15:58;;;;;;;13.60;9.90;;;;;;;12.15;87.62;101787.61;109517;1235;68413;-79
2022/05/10 04:18:27;;;;;;;14.70;10.30;;;;;;;12.17;87.38;101789.05;109632;1234;72445;-78
2022/05/10 04:20:54;;;;;;;11.40;8.80;;;;;;;12.29;87.09;101792.15;109496;1234;60564;-76
2022/05/10 04:23:22;;;;;;;11.10;8.50;;;;;;;12.37;86.26;101791.14;108999;1235;60553;-76
2022/05/10 04:26:14;;;;;;;8.70;5.80;;;;;;;12.36;84.80;101792.61;108734;1235;73798;-76
2022/05/10 04:28:43;;;;;;;8.70;5.30;;;;;;;12.44;84.29;101792.08;109185;1235;74096;-77
2022/05/10 04:31:11;;;;;;;9.30;5.90;;;;;;;12.48;83.53;101789.41;109660;1235;70782;-77
2022/05/10 04:33:40;;;;;;;7.70;5.20;;;;;;;12.44;81.50;101793.66;109612;1235;74328;-78
2022/05/10 04:36:08;;;;;;;9.40;4.90;;;;;;;12.50;81.59;101792.41;109489;1235;61649;-76
2022/05/10 04:38:44;;;;;;;8.70;5.30;;;;;;;12.55;81.19;101795.41;109569;1235;60500;-81
2022/05/10 04:41:26;;;;;;;7.30;4.50;;;;;;;12.53;80.13;101801.98;109466;1235;73387;-77
2022/05/10 04:43:59;;;;;;;9.10;4.40;;;;;;;12.41;79.54;101804.30;109863;1235;70157;-78
2022/05/10 04:46:30;;;;;;;29.00;6.10;;;;;;;12.33;80.18;101809.20;109695;1235;68260;-79
2022/05/10 04:48:59;;;;;;;7.10;4.80;;;;;;;12.35;80.16;101812.25;109697;1235;73812;-79
2022/05/10 04:51:35;;;;;;;8.30;4.40;;;;;;;12.35;80.33;101815.86;109722;1235;62008;-79
2022/05/10 04:54:04;;;;;;;8.70;4.70;;;;;;;12.50;79.74;101815.16;109502;1235;62374;-79
2022/05/10 04:56:34;;;;;;;105.80;11.00;;;;;;;12.51;79.63;101818.39;109895;1235;71269;-78
2022/05/10 04:59:05;;;;;;;16.20;5.40;;;;;;;12.69;79.46;101811.27;109925;1234;71292;-79
2022/05/10 05:01:33;;;;;;;121.80;12.90;;;;;;;12.91;78.80;101812.50;110024;1235;70308;-80
2022/05/10 05:04:01;;;;;;;24.90;6.60;;;;;;;13.16;77.07;101814.02;109742;1235;73480;-77
2022/05/10 05:06:29;;;;;;;12.90;5.00;;;;;;;13.21;75.50;101814.26;109776;1235;62932;-78
2022/05/10 05:08:57;;;;;;;141.70;14.60;;;;;;;13.04;73.31;101808.65;109855;1235;60775;-78
2022/05/10 05:11:25;;;;;;;50.60;7.20;;;;;;;13.38;74.97;101811.17;109999;1235;73294;-77
2022/05/10 05:13:53;;;;;;;30.40;7.20;;;;;;;13.62;74.04;101806.27;109810;1235;72634;-77
2022/05/10 05:16:21;;;;;;;11.00;5.40;;;;;;;13.59;73.26;101798.95;109670;1235;70808;-78
2022/05/10 05:18:49;;;;;;;23.30;5.60;;;;;;;13.63;73.00;101807.23;109588;1235;72473;-78
2022/05/10 05:21:17;;;;;;;16.80;5.50;;;;;;;13.86;73.35;101814.78;109739;1237;61647;-75
2022/05/10 05:23:45;;;;;;;8.00;5.00;;;;;;;13.80;71.67;101818.12;109799;1236;58887;-72
2022/05/10 05:26:12;;;;;;;12.60;4.80;;;;;;;14.01;73.36;101824.61;109624;1237;71668;-77
2022/05/10 05:28:40;;;;;;;16.50;5.50;;;;;;;13.99;73.43;101828.23;109627;1235;69959;-78
2022/05/10 05:31:10;;;;;;;14.70;6.00;;;;;;;14.04;73.60;101828.57;109534;1235;69542;-79
2022/05/10 05:33:39;;;;;;;38.40;6.20;;;;;;;14.09;73.44;101829.51;109535;1235;71151;-77
2022/05/10 05:36:07;;;;;;;279.20;20.10;;;;;;;13.99;73.26;101828.56;109468;1235;62162;-77
2022/05/10 05:38:35;;;;;;;10.70;5.30;;;;;;;14.03;73.07;101824.96;109763;1235;61812;-79
2022/05/10 05:41:04;;;;;;;11.50;5.40;;;;;;;14.05;73.00;101822.53;110050;1234;72379;-79
2022/05/10 05:43:31;;;;;;;9.60;5.50;;;;;;;13.98;71.59;101819.69;109855;1235;69847;-81
2022/05/10 05:45:59;;;;;;;18.40;6.60;;;;;;;13.89;71.13;101819.28;109792;1235;69773;-79
2022/05/10 05:48:26;;;;;;;44.70;7.60;;;;;;;13.94;70.43;101820.16;109908;1235;74219;-78
2022/05/10 05:50:54;;;;;;;8.10;4.90;;;;;;;14.19;71.79;101819.82;110099;1234;61226;-80
2022/05/10 05:53:21;;;;;;;17.70;6.40;;;;;;;14.11;70.69;101818.64;109890;1237;58349;-79
2022/05/10 05:55:49;;;;;;;18.80;5.40;;;;;;;14.14;71.28;101821.92;109552;1235;72852;-77
2022/05/10 05:58:17;;;;;;;7.90;4.80;;;;;;;14.28;71.09;101824.25;109905;1235;71857;-78
2022/05/10 06:00:45;;;;;;;9.90;5.00;;;;;;;14.39;70.34;101826.52;109496;1235;68273;-78
2022/05/10 06:03:13;;;;;;;11.10;5.00;;;;;;;14.55;70.84;101826.24;109642;1234;74431;-78
2022/05/10 06:05:40;;;;;;;16.20;5.50;;;;;;;14.69;69.65;101827.70;109826;1235;59267;-79
2022/05/10 06:08:11;;;;;;;9.20;5.10;;;;;;;14.82;69.63;101832.66;109786;1235;61797;-80
2022/05/10 06:10:39;;;;;;;7.50;5.00;;;;;;;14.96;67.60;101829.61;109657;1235;72760;-79
2022/05/10 06:13:06;;;;;;;20.30;5.70;;;;;;;14.99;67.78;101832.20;109600;1237;70025;-78
2022/05/10 06:15:33;;;;;;;7.10;4.60;;;;;;;15.07;67.65;101834.75;109931;1235;69851;-80
2022/05/10 06:18:04;;;;;;;24.90;6.20;;;;;;;15.26;65.62;101835.60;109349;1235;73268;-78
2022/05/10 06:20:33;;;;;;;8.30;4.60;;;;;;;15.31;65.57;101833.46;109845;1235;61238;-78
2022/05/10 06:23:01;;;;;;;26.90;6.30;;;;;;;15.45;65.54;101837.73;109701;1236;59381;-78
2022/05/10 06:25:28;;;;;;;10.40;5.80;;;;;;;15.39;65.81;101839.70;109726;1234;72276;-78
2022/05/10 06:27:58;;;;;;;9.70;4.90;;;;;;;15.64;65.24;101840.88;109470;1235;71426;-79
2022/05/10 06:30:26;;;;;;;11.30;5.50;;;;;;;15.76;64.04;101839.60;109972;1235;70158;-77
2022/05/10 06:32:59;;;;;;;25.30;6.80;;;;;;;15.63;64.54;101839.02;110141;1235;74103;-79
2022/05/10 06:35:28;;;;;;;14.00;6.00;;;;;;;15.71;64.81;101842.80;110190;1235;59326;-79
2022/05/10 06:40:47;;;;;;;18.40;6.80;;;;;;;16.18;63.59;101835.00;110503;1235;72690;-79
2022/05/10 06:43:16;;;;;;;36.70;7.30;;;;;;;16.29;62.46;101836.55;111073;1232;69808;-81
2022/05/10 06:45:47;;;;;;;9.10;4.80;;;;;;;16.61;62.03;101838.01;110525;1234;68101;-81
2022/05/10 06:48:17;;;;;;;12.40;5.20;;;;;;;16.78;60.61;101834.08;110630;1234;71197;-78
2022/05/10 06:50:45;;;;;;;9.00;5.50;;;;;;;16.60;61.36;101833.02;110454;1234;58905;-78
2022/05/10 06:53:12;;;;;;;11.10;5.80;;;;;;;16.67;61.02;101836.19;110136;1233;59023;-78
2022/05/10 06:55:40;;;;;;;11.60;5.80;;;;;;;16.74;60.19;101834.77;110129;1233;72786;-78
2022/05/10 06:58:08;;;;;;;13.70;6.20;;;;;;;16.73;59.23;101837.48;110349;1234;72545;-78
2022/05/10 07:00:41;;;;;;;6.20;4.80;;;;;;;16.69;59.30;101838.34;110284;1234;68730;-76
2022/05/10 07:03:16;;;;;;;8.70;5.80;;;;;;;16.83;58.42;101838.92;110253;1234;71336;-79
2022/05/10 07:05:47;;;;;;;9.90;5.60;;;;;;;16.85;59.07;101843.33;110473;1234;60463;-79
2022/05/10 07:08:15;;;;;;;8.40;5.20;;;;;;;17.02;58.39;101840.23;110507;1234;61940;-77
2022/05/10 07:10:44;;;;;;;11.30;5.60;;;;;;;17.05;57.61;101843.29;110451;1234;72171;-78
2022/05/10 07:13:23;;;;;;;7.00;5.20;;;;;;;16.92;58.23;101844.02;110037;1234;70713;-79
2022/05/10 07:15:52;;;;;;;8.90;5.40;;;;;;;16.95;57.46;101842.70;110112;1233;71735;-76
2022/05/10 07:18:21;;;;;;;14.80;5.90;;;;;;;16.75;58.39;101843.47;109813;1233;73304;-81
2022/05/10 07:20:50;;;;;;;8.00;4.90;;;;;;;16.84;58.07;101842.92;109620;1234;58859;-81
2022/05/10 07:23:23;;;;;;;10.90;6.00;;;;;;;16.92;57.38;101845.11;109843;1234;60189;-79
2022/05/10 07:25:51;;;;;;;10.70;5.20;;;;;;;16.86;58.25;101846.09;109790;1234;72770;-77
2022/05/10 07:28:18;;;;;;;8.60;5.30;;;;;;;16.78;58.81;101844.30;110146;1234;69875;-78
2022/05/10 07:30:46;;;;;;;9.40;5.70;;;;;;;16.76;58.40;101839.36;109958;1234;69736;-78
2022/05/10 07:33:18;;;;;;;8.90;5.60;;;;;;;16.69;56.97;101843.91;110054;1236;72350;-79
2022/05/10 07:38:47;;;;;;;9.40;5.40;;;;;;;16.72;56.27;101842.27;110365;1234;61858;-79
2022/05/10 07:41:18;;;;;;;10.90;6.00;;;;;;;16.81;57.23;101845.98;110074;1234;73175;-78
2022/05/10 07:43:46;;;;;;;9.60;5.00;;;;;;;16.77;58.56;101848.74;110123;1234;69835;-80
2022/05/10 07:46:14;;;;;;;10.00;5.50;;;;;;;16.99;57.64;101840.14;110403;1234;69696;-78
2022/05/10 07:48:41;;;;;;;9.90;6.00;;;;;;;17.01;57.45;101839.02;109492;1234;73625;-77
2022/05/10 07:51:09;;;;;;;10.60;6.00;;;;;;;16.97;55.64;101838.30;110235;1234;61337;-78
2022/05/10 07:53:37;;;;;;;10.40;5.50;;;;;;;17.12;54.78;101839.90;110183;1234;59318;-78
2022/05/10 07:56:06;;;;;;;18.60;5.60;;;;;;;17.32;54.84;101837.90;110011;1235;71552;-79
2022/05/10 07:58:55;;;;;;;11.70;6.20;;;;;;;17.36;54.19;101836.67;110426;1234;70087;-81
2022/05/10 08:01:25;;;;;;;16.60;7.00;;;;;;;17.46;55.27;101844.33;110062;1234;59176;-81
2022/05/10 08:03:54;;;;;;;9.10;5.60;;;;;;;17.42;53.83;101841.34;110460;1234;71945;-78
2022/05/10 08:06:23;;;;;;;10.40;5.60;;;;;;;17.42;53.84;101841.14;110693;1232;59003;-81
2022/05/10 08:08:50;;;;;;;14.90;6.10;;;;;;;17.56;53.57;101842.77;110815;1234;61353;-78
2022/05/10 08:11:18;;;;;;;12.10;5.90;;;;;;;17.52;52.31;101834.48;110655;1234;73729;-79
2022/05/10 08:13:46;;;;;;;11.50;6.20;;;;;;;17.49;51.24;101833.85;110820;1234;71887;-80
2022/05/10 08:16:13;;;;;;;24.30;6.40;;;;;;;17.47;50.13;101828.39;110446;1234;68658;-80
2022/05/10 08:18:45;;;;;;;18.00;6.70;;;;;;;17.70;51.02;101823.98;110565;1233;73085;-80
2022/05/10 08:21:14;;;;;;;12.80;6.80;;;;;;;17.73;48.87;101826.73;110370;1234;61277;-81
2022/05/10 08:23:42;;;;;;;87.60;12.40;;;;;;;17.64;48.29;101823.91;110400;1234;60798;-81
2022/05/10 08:26:10;;;;;;;48.20;8.80;;;;;;;17.92;48.69;101829.05;110603;1234;71416;-80
2022/05/10 08:28:37;;;;;;;9.80;6.10;;;;;;;18.04;47.70;101825.15;110510;1234;69604;-81
2022/05/10 08:31:08;;;;;;;53.80;10.20;;;;;;;18.07;47.57;101817.27;110664;1234;68303;-80
2022/05/10 08:33:42;;;;;;;20.20;6.50;;;;;;;18.18;47.56;101820.89;110783;1232;73505;-77
2022/05/10 08:36:11;;;;;;;43.40;9.30;;;;;;;18.40;48.08;101818.61;110690;1234;58733;-79
2022/05/10 08:38:39;;;;;;;10.50;5.50;;;;;;;18.25;44.18;101816.41;110464;1235;59570;-80
2022/05/10 08:41:33;;;;;;;26.90;7.50;;;;;;;18.50;44.62;101814.23;110567;1234;63018;-80
2022/05/10 08:44:18;;;;;;;13.40;5.50;;;;;;;18.74;43.77;101813.70;110790;1234;72116;-79
2022/05/10 08:46:58;;;;;;;18.80;6.10;;;;;;;18.82;42.60;101812.42;110706;1234;70047;-81
2022/05/10 08:50:00;;;;;;;13.60;5.50;;;;;;;18.93;43.21;101809.64;110656;1234;73565;-79
2022/05/10 08:52:52;;;;;;;133.00;17.10;;;;;;;18.85;43.41;101807.08;110384;1234;61065;-79
2022/05/10 08:55:30;;;;;;;31.30;7.80;;;;;;;18.94;43.67;101805.76;110165;1234;60868;-78
2022/05/10 08:58:33;;;;;;;17.70;7.10;;;;;;;19.06;43.73;101807.05;110508;1234;72954;-79
2022/05/10 09:01:32;;;;;;;8.90;5.50;;;;;;;19.27;42.63;101803.56;110725;1234;72188;-77
2022/05/10 09:04:23;;;;;;;17.80;6.90;;;;;;;19.25;42.31;101801.70;110701;1233;70578;-78
2022/05/10 09:07:00;;;;;;;17.60;7.00;;;;;;;19.22;41.99;101799.10;110346;1235;62883;-79
2022/05/10 09:09:29;;;;;;;8.60;5.40;;;;;;;19.24;41.88;101796.61;110563;1234;61786;-80
2022/05/10 09:12:24;;;;;;;8.10;5.10;;;;;;;19.28;41.29;101793.91;110730;1234;58999;-80
2022/05/10 09:15:02;;;;;;;9.70;5.60;;;;;;;19.24;41.15;101790.28;110474;1234;72812;-79
2022/05/10 09:17:36;;;;;;;76.20;12.60;;;;;;;19.24;40.25;101784.77;110557;1235;71728;-80
2022/05/10 09:20:07;;;;;;;7.30;4.40;;;;;;;19.30;39.70;101787.38;110322;1235;69959;-80
2022/05/10 09:23:14;;;;;;;9.80;5.00;;;;;;;19.53;37.61;101784.60;110467;1235;62982;-79
2022/05/10 09:25:45;;;;;;;9.30;3.80;;;;;;;19.84;38.57;101785.58;110424;1235;59006;-81
2022/05/10 09:28:54;;;;;;;8.10;3.60;;;;;;;19.87;34.24;101780.70;110519;1233;60319;-79
2022/05/10 09:34:46;;;;;;;5.80;3.40;;;;;;;19.81;35.32;101773.11;110814;1234;72183;-79
2022/05/10 09:37:39;;;;;;;9.60;4.30;;;;;;;19.77;35.39;101770.65;110607;1235;69724;-80
2022/05/10 09:40:24;;;;;;;11.10;5.90;;;;;;;19.73;36.14;101769.80;110611;1235;63061;-80
2022/05/10 09:43:12;;;;;;;23.80;6.50;;;;;;;19.64;36.35;101771.58;110859;1234;60273;-80
2022/05/10 09:45:39;;;;;;;10.10;3.60;;;;;;;19.71;35.45;101762.44;110783;1235;58703;-81
2022/05/10 09:48:07;;;;;;;5.60;3.70;;;;;;;19.70;35.07;101762.02;110207;1235;72879;-80
2022/05/10 09:50:40;;;;;;;8.70;4.20;;;;;;;19.57;35.57;101762.95;110891;1233;60673;-79
2022/05/10 09:53:36;;;;;;;8.30;4.50;;;;;;;19.50;35.95;101761.69;110870;1234;59089;-81
2022/05/10 09:56:44;;;;;;;6.90;3.90;;;;;;;19.32;36.29;101755.73;110847;1234;62452;-80
2022/05/10 09:59:12;;;;;;;7.50;4.10;;;;;;;19.35;36.68;101752.55;110846;1235;57683;-79
2022/05/10 10:01:50;;;;;;;6.80;4.10;;;;;;;19.58;36.72;101750.05;111076;1232;60357;-80
2022/05/10 10:04:28;;;;;;;17.40;5.10;;;;;;;19.64;35.88;101748.42;110789;1232;63570;-80
2022/05/10 10:07:24;;;;;;;6.90;3.60;;;;;;;20.10;34.87;101740.69;110841;1234;60763;-79
2022/05/10 10:10:12;;;;;;;10.70;4.70;;;;;;;20.28;34.23;101737.09;110886;1234;59087;-78
2022/05/10 10:12:44;;;;;;;10.40;4.60;;;;;;;20.30;34.40;101732.80;110507;1235;63534;-78
2022/05/10 10:15:35;;;;;;;5.30;3.40;;;;;;;20.27;35.29;101729.25;110684;1234;58780;-81
2022/05/10 10:18:08;;;;;;;7.60;3.90;;;;;;;20.43;34.17;101724.88;110744;1235;60636;-76
2022/05/10 10:20:53;;;;;;;6.20;3.60;;;;;;;20.36;34.45;101728.36;111110;1234;72405;-81
2022/05/10 10:23:31;;;;;;;7.10;4.00;;;;;;;20.36;34.68;101727.69;110526;1234;61794;-79
2022/05/10 10:26:46;;;;;;;6.40;3.70;;;;;;;20.41;35.33;101728.04;111118;1233;69685;-79
2022/05/10 10:29:35;;;;;;;12.60;3.80;;;;;;;20.79;33.99;101727.91;110581;1235;72211;-81
2022/05/10 10:32:21;;;;;;;5.30;3.80;;;;;;;21.30;33.32;101720.77;110905;1234;61129;-80
2022/05/10 10:35:13;;;;;;;9.80;3.80;;;;;;;21.81;31.97;101719.20;111132;1233;57530;-81
2022/05/10 10:38:05;;;;;;;7.70;3.40;;;;;;;22.22;31.61;101717.80;111182;1233;62384;-80
2022/05/10 10:40:41;;;;;;;178.00;17.50;;;;;;;22.66;30.80;101716.44;111259;1233;60765;-80
2022/05/10 10:47:41;;;;;;;6.40;3.10;;;;;;;23.54;29.63;101705.16;111102;1234;72927;-82
2022/05/10 10:50:22;;;;;;;6.60;2.80;;;;;;;24.33;25.99;101704.90;111077;1234;57337;-81
2022/05/10 10:52:52;;;;;;;30.30;5.40;;;;;;;23.92;25.82;101699.85;111088;1233;60350;-81
2022/05/10 10:55:26;;;;;;;30.40;5.50;;;;;;;23.03;27.35;101697.34;111016;1235;73272;-82
2022/05/10 10:58:38;;;;;;;13.20;3.60;;;;;;;23.19;27.52;101694.19;111110;1233;61146;-81
2022/05/10 11:05:34;;;;;;;30.30;4.60;;;;;;;23.78;27.92;101693.44;111163;1234;63286;-81
2022/05/10 11:08:34;;;;;;;4.10;2.80;;;;;;;23.96;27.10;101686.56;111158;1234;60432;-81
2022/05/10 11:11:51;;;;;;;10.70;2.80;;;;;;;23.78;27.05;101683.30;111137;1234;57685;-81
2022/05/10 11:14:40;;;;;;;14.70;3.70;;;;;;;24.55;27.41;101677.86;111050;1234;71294;-79
2022/05/10 11:17:29;;;;;;;10.30;3.30;;;;;;;24.23;26.95;101680.96;111180;1234;72101;-80
2022/05/10 11:23:49;;;;;;;4.10;2.90;;;;;;;23.79;27.90;101673.88;111209;1231;70957;-80
2022/05/10 11:26:35;;;;;;;5.90;3.20;;;;;;;23.53;28.15;101665.23;110705;1235;57615;-81
2022/05/10 11:29:30;;;;;;;6.90;3.00;;;;;;;23.64;28.11;101666.20;110816;1235;57517;-81
2022/05/10 11:32:09;;;;;;;7.40;3.10;;;;;;;23.92;27.77;101660.87;110776;1235;71872;-81
2022/05/10 11:35:03;;;;;;;4.90;2.90;;;;;;;23.86;27.37;101662.81;110849;1234;73212;-79
2022/05/10 11:37:43;;;;;;;4.50;2.90;;;;;;;24.23;27.46;101633.02;111005;1235;70202;-79
2022/05/10 11:40:17;;;;;;;5.20;2.70;;;;;;;24.36;26.59;101626.38;110736;1235;62972;-80
2022/05/10 11:43:50;;;;;;;4.80;2.60;;;;;;;24.93;25.41;101642.87;111101;1233;60020;-80
2022/05/10 11:51:39;;;;;;;5.60;2.90;;;;;;;26.82;23.59;101636.48;111060;1236;63069;-81
2022/05/10 11:54:34;;;;;;;;;;;;;;;26.70;23.26;101637.92;111127;1234;60897;-80
2022/05/10 11:57:29;;;;;;;5.00;2.60;;;;;;;26.89;23.00;101632.80;111053;1234;59200;-82
2022/05/10 12:00:51;;;;;;;5.10;2.60;;;;;;;26.22;22.43;101629.02;110753;1235;73861;-81
2022/05/10 12:03:36;;;;;;;3.60;2.30;;;;;;;25.49;22.92;101626.90;110611;1238;57583;-81
2022/05/10 12:07:00;;;;;;;5.50;2.50;;;;;;;24.77;23.90;101626.31;110958;1235;57607;-81
2022/05/10 12:09:52;;;;;;;;;;;;;;;24.77;24.46;101619.59;110590;1235;71800;-81
2022/05/10 12:12:46;;;;;;;4.90;2.60;;;;;;;25.54;24.59;101613.23;110861;1235;72531;-80
2022/05/10 12:21:51;;;;;;;3.80;2.30;;;;;;;26.11;23.71;101605.01;110665;1236;58955;-80
2022/05/10 12:24:25;;;;;;;23.50;4.00;;;;;;;25.98;23.57;101599.81;110031;1235;61314;-80
2022/05/10 12:27:32;;;;;;;3.70;2.10;;;;;;;26.62;23.05;101598.05;110681;1236;62667;-81
2022/05/10 12:30:07;;;;;;;3.70;2.40;;;;;;;26.90;21.26;101591.55;110331;1234;71455;-80
2022/05/10 12:32:36;;;;;;;13.00;2.80;;;;;;;26.25;22.12;101585.36;110956;1234;70045;-82
2022/05/10 12:35:38;;;;;;;6.10;2.40;;;;;;;25.35;23.58;101580.63;110937;1234;74246;-80
2022/05/10 12:38:46;;;;;;;4.80;2.40;;;;;;;26.10;22.95;101576.66;111074;1234;59946;-81